Tiempo atmosférico en la estación meteorológica de Tenerife Norte Aeropuerto, Santa Cruz de Tenerife (632 m.)



Fecha
DESCASC
Temp. máxima en grados centígrados (hora)
DESCASC
Temp. mínima en grados centígrados (hora)
DESCASC
Temp. media en grados centígrados
DESCASC
Racha de viento máxima en m/sg (hora)
DESCASC
Velocidad máxima media en intervalos de 10 minutos(hora)
DESCASC
Precipitaciones diarias en mm
DESCASC
Precipitaciones de 00:00 a 06:00 en mm
DESCASC
Precipitaciones de 06:00 a 12:00 en mm
DESCASC
Precipitaciones de 12:00 a 18:00 en mm
DESCASC
Precipitaciones de 18:00 a 24:00 en mm
DESCASC
31-03-2020 18.8 (15:50) 12 (08:20) 15.4 11.39 (00:50) 8.89 (00:50) 0 0 0 0 0
29-03-2020 18.2 (14:20) 9.5 (00:00) 13.9 7.22 (16:50) 4.72 (23:50) 0.1 0.1 0 0 0
28-03-2020 16.7 (14:00) 9.7 (00:00) 13.2 10.28 (00:10) 8.33 (00:40) 0.5 0.3 0 0 0.2
27-03-2020 17.7 (13:40) 10.6 (00:00) 14.2 12.78 (21:50) 8.89 (22:20) 21.1 10.6 0 0.5 10
26-03-2020 17 (13:50) 9.4 (00:00) 13.2 8.89 (20:30) 5.56 (20:40) 0 0 0 0 0
25-03-2020 16.6 (13:20) 10.5 (00:00) 13.6 9.72 (00:50) 7.22 (00:10) 0.4 0.4 0 0 0
24-03-2020 16.4 (12:00) 11.4 (00:00) 13.9 16.11 (03:20) 11.11 (00:10) 14.4 12.1 1.8 0.2 0.3
23-03-2020 13.5 (11:30) 9.2 (00:00) 11.3 23.33 (04:30) 15.28 (04:00) 17.3 3.5 10.8 2.8 0.2
22-03-2020 17.6 (15:10) 9.9 (07:50) 13.8 21.67 (20:30) 16.11 (22:00) 22.7 0 0 17.5 5.2
21-03-2020 15.6 (13:10) 10.5 (00:00) 13.1 16.94 (16:50) 12.5 (18:40) 0 0 0 0 0
20-03-2020 17 (13:30) 11.9 (00:00) 14.4 16.94 (01:50) 10.83 (14:40) 4.4 0.1 0 2.7 1.6
19-03-2020 15.8 (14:30) 11.7 (00:00) 13.8 21.67 (02:00) 16.11 (02:20) 7.1 1.7 2.5 1.6 1.3
18-03-2020 15.6 (15:20) 9.8 (00:00) 12.7 22.22 (18:30) 14.72 (18:20) 2.5 0.1 1.3 1.1 0
17-03-2020 14.5 (12:50) 9.7 (00:00) 12.1 16.39 (21:40) 10.56 (20:30) 2.8 0.5 0.8 0.2 1.3
16-03-2020 16.3 (12:50) 11.4 (00:00) 13.8 16.11 (16:20) 10.28 (16:20) 3.9 1.9 0.1 1 0.9
15-03-2020 15.6 (14:40) 10 (00:00) 12.8 15 (20:10) 10 (20:10) 7.1 1.8 1.4 3.3 0.6
14-03-2020 18.4 (14:20) 11.8 (00:00) 15.1 16.11 (22:00) 12.22 (22:00) 0 0 0 0 0
13-03-2020 19.9 (14:30) 11.2 (02:10) 15.5 9.72 (15:50) 7.78 (15:50) -- 0 0 -- 0
12-03-2020 26.1 (12:20) 11.5 (00:00) 18.8 7.78 (13:20) 5.56 (23:30) 0 0 0 0 0
11-03-2020 24.8 (13:10) 10.7 (00:00) 17.7 6.67 (05:00) 4.44 (04:40) 0 0 0 0 0
10-03-2020 23.3 (12:00) 14.7 (00:00) 19 7.22 (01:10) 4.72 (11:50) 0 0 0 0 0
09-03-2020 23.5 (14:00) 12.2 (00:00) 17.8 8.89 (09:10) 5.56 (10:00) 0 0 0 0 0
08-03-2020 23.5 (14:20) 11.6 (00:00) 17.6 10.28 (04:20) 7.78 (04:20) 0 0 0 0 0
07-03-2020 19.4 (15:30) 10.4 (00:00) 14.9 11.39 (20:20) 8.06 (20:00) 0 0 0 0 0
06-03-2020 16.4 (14:00) 10.8 (00:00) 13.6 10.83 (12:40) 6.11 (16:00) 2.2 2.1 0 0.1 0
05-03-2020 18.1 (16:00) 11.8 (00:00) 15 13.33 (13:20) 9.17 (07:00) 0 0 0 0 0
04-03-2020 25.2 (13:10) 12.8 (23:59) 19 8.89 (21:10) 6.39 (21:00) 0 0 0 0 0

Gráficas

Temp. máximas Temp. mínimas Temp. medias Precipitaciones Rachas de viento máximas Velocidades máximas media en intervalos de 10 minutos

Datos horarios

Fecha y hora oficial Temperatura (ºC) Velocidad del viento (km/h) Dirección del viento Racha (km/h) Dirección de racha Precipitación (mm) Presión (hPa) Tendencia (hPa) Humedad (%)
2020-04-02 23:00:00 13.4 10 Sudeste 13 Sudeste 0 945.6 0.5 95
2020-04-02 22:00:00 13.5 7 Este 11 Sudeste 0 945.5 0.6 95
2020-04-02 21:00:00 13.9 3 Sudeste 9 Oeste 0 945.4 0.5 89
2020-04-02 20:00:00 14.4 2 Nordeste 17 Sudeste 0 945.1 0.1 86
2020-04-02 19:00:00 16.1 9 Este 21 Este 0 944.9 -0.9 80
2020-04-02 18:00:00 15.7 12 Este 24 Sudeste 0 944.9 -1.4 82
2020-04-02 17:00:00 18 15 Sudeste 22 Sudeste 0 945 -2.1 69
2020-04-02 16:00:00 17.8 10 Este 24 Este 0 945.8 -1.7 69
2020-04-02 15:00:00 16.5 17 Este 26 Este 0 946.3 -1.5 78
2020-04-02 14:00:00 16.5 12 Este 24 Este 0 947.1 -0.2 76
2020-04-02 13:00:00 16.2 14 Este 26 Sudeste 0 947.5 0.9 78
2020-04-02 12:00:00 15.9 14 Sudeste 22 Sudeste 0 947.8 1.7 78
2020-04-02 11:00:00 14.8 13 Este 21 Este 0 947.3 1.5 83
2020-04-02 10:00:00 14.2 9 Sudeste 18 Este 0 946.6 1.3 86
2020-04-02 09:00:00 13.2 9 Sudeste 13 Sudeste 0 946.1 1.3 88
2020-04-02 08:00:00 10.7 10 Sur 13 Sur 0 945.8 0.6 92
2020-04-02 07:00:00 10.8 9 Sur 11 Sur 0 945.3 -0.4 92
2020-04-02 06:00:00 10.4 7 Sur 13 Oeste 0 944.8 -1.4 84
2020-04-02 05:00:00 11.1 6 Norte 17 Oeste 0 945.2 -1.8 80
2020-04-02 04:00:00 10.9 14 Oeste 18 Oeste 0 945.7 -1.6 88
2020-04-02 03:00:00 11.3 16 Oeste 18 Oeste 0 946.2 -1.2 88
2020-04-02 02:00:00 11.5 11 Oeste 26 Oeste 0 947 -0.3 91
2020-04-02 01:00:00 11.3 21 Oeste 24 Oeste 0 947.3 0.5 94
2020-04-02 00:00:00 11.7 12 Oeste 22 Noroeste 0 947.4 1.2 94
2020-04-01 23:00:00 12.7 15 Noroeste 22 Noroeste 0 947.3 1.2 91
2020-04-01 22:00:00 13.1 13 Noroeste 26 Noroeste 0 946.8 1.2 89
2020-04-01 21:00:00 13.7 17 Noroeste 22 Noroeste 0 946.2 0.8 84
2020-04-01 20:00:00 14.6 14 Noroeste 24 Noroeste 0 946.1 0.7 78
2020-04-01 19:00:00 16.4 14 Noroeste 21 Noroeste 0 945.6 0 74
2020-04-01 18:00:00 15.5 12 Este 18 Este 0 945.4 -0.6 85
2020-04-01 17:00:00 16.5 13 Sudeste 24 Este 0 945.4 -1.1 81
2020-04-01 16:00:00 16.9 12 Sudeste 21 Sudeste 0 945.6 -1.1 79
2020-04-01 15:00:00 16.2 13 Sudeste 18 Sudeste 0 946 -1.1 80
2020-04-01 14:00:00 16.4 6 Sudeste 21 Este 0 946.5 -0.6 79
2020-04-01 13:00:00 16.7 12 Sudeste 21 Este 0 946.7 0.1 79
2020-04-01 12:00:00 16.3 10 Noroeste 17 Noroeste 0 947.1 1.2 78
2020-04-01 11:00:00 15.4 7 Sudeste 17 Sur 0 947.1 1.7 82
2020-04-01 10:00:00 14.2 9 Sur 15 Sudeste 0 946.6 1.5 87
2020-04-01 09:00:00 12.8 8 Sudoeste 17 Oeste 0 945.9 0.8 92
2020-04-01 08:00:00 11.5 13 Oeste 17 Oeste 0 945.4 0.1 95
2020-04-01 07:00:00 11.6 11 Oeste 17 Oeste 0 945.1 -0.4 96
2020-04-01 06:00:00 12.4 8 Oeste 15 Oeste 0 945.1 -0.5 96
2020-04-01 05:00:00 12 13 Oeste 18 Oeste 0 945.3 -0.7 96
2020-04-01 04:00:00 12.6 9 Oeste 15 Oeste 0 945.5 -0.5 94
2020-04-01 03:00:00 12.8 6 Sudoeste 17 Oeste 0 945.6 -0.8 92
2020-04-01 02:00:00 12.4 13 Oeste 18 Oeste 0 946 -0.2 96
2020-04-01 01:00:00 12.8 13 Noroeste 15 Oeste 0 946 0.4 96
2020-04-01 00:00:00 13.3 7 Noroeste 17 Noroeste 0 946.4 1.6 93
2020-03-31 23:00:00 13.8 7 Noroeste 17 Noroeste 0 946.2 2 93
2020-03-31 22:00:00 13.9 13 Noroeste 17 Noroeste 0 945.6 1.2 92
2020-03-31 21:00:00 14.1 10 Noroeste 18 Noroeste 0 944.8 0.6 91
2020-03-31 20:00:00 14.5 15 Noroeste 21 Noroeste 0 944.2 0.3 89
2020-03-31 19:00:00 15.3 13 Noroeste 22 Noroeste 0 944.4 0.5 83
2020-03-31 18:00:00 16.3 15 Noroeste 24 Oeste 0 944.2 0.1 79
2020-03-31 17:00:00 16.6 14 Noroeste 24 Norte 0 943.9 -0.2 77
2020-03-31 16:00:00 17.8 14 Oeste 24 Norte 0 943.9 -0.4 72
2020-03-31 15:00:00 17.3 9 Noroeste 26 Este 0 944.1 0 77
2020-03-31 14:00:00 16.3 11 Sudeste 22 Sudeste 0 944.1 0.5 86
2020-03-31 13:00:00 16.9 11 Sudeste 17 Este 0 944.3 1 81
2020-03-31 12:00:00 16.2 12 Noroeste 26 Noroeste 0 944.1 0.9 81
2020-03-31 11:00:00 15.6 15 Noroeste 26 Oeste 0 943.6 0.9 84
2020-03-31 10:00:00 14.9 15 Noroeste 22 Noroeste 0 943.3 0.8 84
2020-03-31 09:00:00 13.8 10 Oeste 17 Oeste 0 943.2 1 86
2020-03-31 08:00:00 12.5 13 Oeste 28 Oeste 0 942.7 0.4 91
2020-03-31 07:00:00 13.4 15 Oeste 28 Oeste 0 942.5 0 95
2020-03-31 06:00:00 13.5 13 Oeste 18 Oeste 0 942.2 -0.4 91
2020-03-31 05:00:00 13.8 10 Sudoeste 18 Sudoeste 0 942.3 -0.4 80
2020-03-31 04:00:00 13 13 Oeste 30 Oeste 0 942.5 -0.3 91
2020-03-31 03:00:00 13 17 Oeste 28 Oeste 0 942.6 -0.8 85
2020-03-31 02:00:00 13 22 Oeste 37 Oeste 0 942.7 -1 89
2020-03-31 01:00:00 13 32 Oeste 41 Oeste 0 942.8 -0.8 93
2020-03-31 00:00:00 13.3 29 Oeste 39 Oeste 0 943.4 0 92
2020-03-30 23:00:00 14.2 26 Oeste 39 Oeste 0 943.7 0.6 95
2020-03-30 22:00:00 14.2 28 Oeste 35 Oeste 0 943.6 0.6 95
2020-03-30 21:00:00 14.5 23 Oeste 42 Oeste 0 943.4 0.3 91
2020-03-30 20:00:00 14.7 26 Oeste 35 Oeste 0 943.1 -0.1 94
2020-03-30 19:00:00 14.8 21 Oeste 32 Oeste 0 943 -0.8 92
2020-03-30 18:00:00 15.7 17 Oeste 24 Oeste 0 943.1 -1.1 84
2020-03-30 17:00:00 17.8 11 Noroeste 18 Norte 0 943.2 -1.8 76
2020-03-30 16:00:00 16.3 9 Sudeste 18 Sudeste 0 943.8 -1.6 86
2020-03-30 15:00:00 17.7 11 Sudeste 22 Este 0 944.2 -1.6 79
2020-03-30 14:00:00 18.3 10 Norte 24 Nordeste 0 945 -0.6 73
2020-03-30 13:00:00 16 11 Sudeste 18 Sudeste 0 945.4 0.1 83
2020-03-30 12:00:00 16.6 7 Sudeste 21 Sudeste 0 945.8 0.5 76
2020-03-30 11:00:00 15.6 8 Este 17 Este 0 945.6 0.7 81
2020-03-30 10:00:00 14 8 Noroeste 15 Noroeste 0 945.3 0.8 88
2020-03-30 09:00:00 12.6 9 Oeste 13 Oeste 0 945.3 0.9 92
2020-03-30 08:00:00 11 10 Oeste 22 Oeste 0 944.9 0.1 91
2020-03-30 07:00:00 10.7 15 Oeste 21 Oeste 0 944.5 -1 92
2020-03-30 06:00:00 11.2 7 Oeste 15 Sudoeste 0 944.4 -2 91
2020-03-30 05:00:00 11.3 12 Oeste 17 Oeste 0 944.8 -2 90
2020-03-30 04:00:00 11.5 12 Oeste 17 Oeste 0 945.5 -1.7 89
2020-03-30 03:00:00 11.6 10 Oeste 21 Oeste 0 946.4 -0.8 85
2020-03-30 02:00:00 9.5 11 Oeste 17 Oeste 0 946.8 -0.7 91
2020-03-30 01:00:00 11.8 9 Sudoeste 18 Oeste 0 947.2 -0.2 81
2020-03-30 00:00:00 11 17 Oeste 22 Oeste 0 947.2 0.4 93
2020-03-29 23:00:00 11.1 11 Oeste 13 Oeste 0 947.5 0.5 90
2020-03-29 22:00:00 -- 8 Oeste 9 Oeste 0 947.4 0.3 --
2020-03-29 21:00:00 12.8 3 Oeste 13 Oeste 0 946.8 -0.2 89
2020-03-29 20:00:00 13.9 11 Oeste 21 Oeste 0 947 -0.1 84
2020-03-29 19:00:00 14.7 16 Oeste 22 Oeste 0 947.1 -0.6 79
2020-03-29 18:00:00 15.4 14 Noroeste 22 Noroeste 0 947 -1.3 76
2020-03-29 17:00:00 16.9 17 Noroeste 26 Noroeste 0 947.1 -1.5 70
2020-03-29 16:00:00 16.1 8 Sur 21 Sudeste 0 947.7 -1.2 79
2020-03-29 15:00:00 16.3 14 Sudeste 22 Sudeste 0 948.3 -0.6 80
2020-03-29 14:00:00 17 10 Noroeste 22 Norte 0 948.6 -0.1 63
2020-03-29 13:00:00 16.1 6 Sudeste 22 Sudeste 0 948.9 0.3 77
2020-03-29 12:00:00 14.9 10 Sudeste 17 Sudeste 0 948.9 0.6 81
2020-03-29 11:00:00 15.9 11 Sudeste 17 Este 0 948.7 0.8 75
2020-03-29 10:00:00 14.3 9 Noroeste 13 Noroeste 0 948.6 1 68
2020-03-29 09:00:00 12.8 10 Oeste 17 Oeste 0 948.3 0.8 70
2020-03-29 08:00:00 11.4 13 Oeste 17 Oeste 0 947.9 0.4 73
2020-03-29 07:00:00 11.3 13 Oeste 18 Oeste 0 947.6 -0.3 73
2020-03-29 06:00:00 11.1 9 Sudoeste 18 Oeste 0 947.5 -1.1 85
2020-03-29 05:00:00 10.5 13 Oeste 17 Oeste 0 947.5 -1.7 94
2020-03-29 04:00:00 11.5 10 Oeste 15 Oeste 0 947.9 -1.4 94
2020-03-29 00:00:00 12.3 13 Oeste 18 Oeste 0.2 949.3 0.9 96
2020-03-28 23:00:00 12.5 11 Noroeste 18 Oeste 0 949.2 1.5 95
2020-03-28 22:00:00 11.9 11 Oeste 22 Noroeste 0 949 1.5 96
2020-03-28 21:00:00 12.5 17 Noroeste 24 Noroeste 0 948.4 1.3 93
2020-03-28 20:00:00 12.8 18 Noroeste 26 Noroeste 0 947.7 1.1 93
2020-03-28 19:00:00 13.5 17 Noroeste 26 Oeste 0 947.5 1.2 87
2020-03-28 18:00:00 14 14 Noroeste 26 Oeste 0 947.1 0.9 84
2020-03-28 17:00:00 15.9 18 Noroeste 32 Noroeste 0 946.6 0.2 74
2020-03-28 16:00:00 16.1 23 Noroeste 30 Noroeste 0 946.3 -0.5 73
2020-03-28 15:00:00 15.8 20 Noroeste 33 Noroeste 0 946.2 -0.8 76
2020-03-28 14:00:00 16 18 Noroeste 30 Noroeste 0 946.4 -0.8 74
2020-03-28 13:00:00 15.1 17 Noroeste 30 Noroeste 0 946.8 -0.3 78
2020-03-28 12:00:00 15.1 21 Noroeste 30 Oeste 0 947 0.3 80
2020-03-28 11:00:00 14.7 20 Noroeste 28 Noroeste 0 947.2 1.1 79
2020-03-28 10:00:00 14.2 13 Noroeste 22 Oeste 0 947.1 1.6 81
2020-03-28 09:00:00 11.4 16 Oeste 30 Noroeste 0 946.7 1.7 97
2020-03-28 08:00:00 11.7 17 Oeste 22 Oeste 0 946.1 1.2 88
2020-03-28 07:00:00 10.1 16 Oeste 21 Oeste 0 945.5 1.1 91
2020-03-28 06:00:00 10.6 14 Oeste 24 Norte 0.3 945 0.8 97
2020-03-28 05:00:00 10.7 18 Noroeste 30 Noroeste 0 944.9 0.4 93
2020-03-28 04:00:00 10.1 15 Oeste 30 Oeste 0 944.4 -0.5 93
2020-03-28 03:00:00 10.8 23 Oeste 33 Oeste 0 944.2 -0.9 86
2020-03-28 02:00:00 11.2 28 Oeste 37 Oeste 0 944.5 -0.3 92
2020-03-28 01:00:00 11.6 27 Oeste 37 Noroeste 0 944.9 0.5 96
2020-03-28 00:00:00 11.9 26 Noroeste 42 Noroeste 2 945.1 1.2 96
2020-03-27 23:00:00 12 28 Noroeste 45 Noroeste 0.2 944.8 1.4 96
2020-03-27 22:00:00 11.9 30 Noroeste 46 Oeste 1.7 944.4 1.4 96
2020-03-27 21:00:00 12 31 Noroeste 45 Noroeste 1.5 943.9 1.2 97
2020-03-27 20:00:00 12.2 30 Oeste 42 Oeste 1.6 943.4 0.7 96
2020-03-27 19:00:00 12.5 28 Oeste 41 Oeste 3 943 0.3 95
2020-03-27 18:00:00 13.4 19 Oeste 32 Oeste 0.5 942.7 -0.3 89
2020-03-27 17:00:00 14.9 21 Oeste 32 Oeste 0 942.7 -0.8 75
2020-03-27 16:00:00 15.4 22 Oeste 37 Noroeste 0 942.7 -1.3 76
2020-03-27 15:00:00 16.4 22 Oeste 33 Oeste 0 943 -1.3 71
2020-03-27 14:00:00 17 19 Oeste 32 Oeste 0 943.5 -0.8 67
2020-03-27 13:00:00 16.4 19 Oeste 37 Noroeste 0 944 -0.2 66
2020-03-27 12:00:00 16.1 23 Oeste 37 Oeste 0 944.3 0.8 70
2020-03-27 11:00:00 15.5 24 Oeste 33 Oeste 0 944.3 0.9 76
2020-03-27 10:00:00 14.8 25 Oeste 35 Oeste 0 944.2 1.5 78
2020-03-27 09:00:00 13.2 24 Oeste 37 Oeste 0 943.5 1 88
2020-03-27 08:00:00 11.1 13 Oeste 21 Oeste 0 943.4 0.9 94
2020-03-27 07:00:00 11.2 19 Oeste 28 Oeste 0 942.7 -0.1 94
2020-03-27 06:00:00 11 23 Oeste 28 Oeste 0 942.5 -0.8 96
2020-03-27 05:00:00 11.1 22 Oeste 26 Oeste 0 942.5 -1.2 96
2020-03-27 04:00:00 10.9 18 Oeste 26 Oeste 5.4 942.8 -1.2 96
2020-03-27 03:00:00 10.6 11 Oeste 24 Oeste 5.2 943.3 -1 95
2020-03-27 02:00:00 12 18 Oeste 28 Noroeste 0 943.7 -0.6 94
2020-03-27 01:00:00 12.2 19 Noroeste 28 Oeste 0 944 -0.3 93
2020-03-27 00:00:00 12.3 18 Oeste 24 Oeste 0 944.3 0.4 90
2020-03-26 23:00:00 12.2 19 Noroeste 26 Oeste 0 944.3 0.7 88
2020-03-26 22:00:00 12.3 19 Noroeste 28 Noroeste 0 944.3 0.7 89
2020-03-26 21:00:00 12.5 17 Noroeste 32 Oeste 0 943.9 0.4 89
2020-03-26 20:00:00 12.4 17 Noroeste 26 Noroeste 0 943.6 0.3 88
2020-03-26 19:00:00 12.9 15 Noroeste 22 Noroeste 0 943.6 0 81
2020-03-26 18:00:00 13.6 14 Noroeste 26 Noroeste 0 943.5 -0.6 77
2020-03-26 17:00:00 14.6 19 Noroeste 26 Noroeste 0 943.3 -1.1 76
2020-03-26 16:00:00 15.3 12 Norte 28 Noroeste 0 943.6 -1.5 71
2020-03-26 15:00:00 15.4 10 Noroeste 22 Noroeste 0 944.1 -1.3 68
2020-03-26 14:00:00 16.1 11 Noroeste 24 Noroeste 0 944.4 -1.3 69
2020-03-26 13:00:00 14.9 15 Noroeste 26 Oeste 0 945.1 -0.4 73
2020-03-26 12:00:00 15.6 14 Noroeste 24 Noroeste 0 945.4 0.3 70
2020-03-26 11:00:00 15.6 9 Norte 17 Noroeste 0 945.7 0.9 63
2020-03-26 10:00:00 13.6 7 Noroeste 13 Noroeste 0 945.5 0.8 67
2020-03-26 09:00:00 12.6 7 Oeste 11 Oeste 0 945.1 0.8 76
2020-03-26 08:00:00 11.5 8 Oeste 13 Oeste 0 944.8 0.8 85
2020-03-26 07:00:00 10.2 5 Oeste 11 Sudoeste 0 944.7 0.4 88
2020-03-26 06:00:00 10.2 6 Sur 8 Sur 0 944.3 -0.4 93
2020-03-26 05:00:00 10.5 5 Sur 8 Sur 0 944 -1.4 92
2020-03-26 04:00:00 10.8 4 Noroeste 9 Sur 0 944.3 -1.7 90
2020-03-26 03:00:00 11.2 5 Sur 11 Sur 0 944.7 -1.6 89
2020-03-26 02:00:00 11.2 6 Sur 9 Sur 0 945.4 -1.1 90
2020-03-26 01:00:00 12 6 Sudeste 9 Sur 0 946 -0.3 87
2020-03-26 00:00:00 12 4 Oeste 9 Oeste 0 946.3 0.2 86
2020-03-25 23:00:00 11.7 6 Sudoeste 13 Oeste 0 946.5 0.8 88
2020-03-25 22:00:00 10.9 10 Oeste 15 Noroeste 0 946.3 0.8 93
2020-03-25 21:00:00 11.8 12 Noroeste 21 Noroeste 0 946.1 0.5 91
2020-03-25 20:00:00 12.5 16 Noroeste 24 Noroeste 0 945.7 0.2 87
2020-03-25 19:00:00 13.1 18 Noroeste 28 Noroeste 0 945.5 -0.1 84
2020-03-25 18:00:00 14 19 Noroeste 30 Oeste 0 945.6 -0.3 76
2020-03-25 17:00:00 15 21 Noroeste 26 Noroeste 0 945.5 -0.9 67
2020-03-25 16:00:00 15.3 18 Noroeste 30 Noroeste 0 945.6 -1.2 67
2020-03-25 15:00:00 15.2 21 Noroeste 30 Noroeste 0 945.9 -1.2 73
2020-03-25 14:00:00 15.9 17 Noroeste 30 Noroeste 0 946.4 -0.9 58
2020-03-25 13:00:00 15.5 16 Noroeste 26 Noroeste 0 946.8 -0.4 66
2020-03-25 12:00:00 15.1 14 Noroeste 24 Noroeste 0 947.1 0.1 70
2020-03-25 11:00:00 15.5 8 Noroeste 21 Noroeste 0 947.3 0.8 69
2020-03-25 10:00:00 15.1 6 Noroeste 15 Norte 0 947.2 1.2 71
2020-03-25 09:00:00 13.1 6 Noroeste 13 Oeste 0 947 1.4 86
2020-03-25 08:00:00 12 8 Oeste 13 Oeste 0 946.5 1.3 90
2020-03-25 07:00:00 11.6 9 Sudoeste 15 Sudoeste 0 946 0.7 95
2020-03-25 06:00:00 11.7 8 Oeste 15 Oeste 0.1 945.6 -0.2 94
2020-03-25 05:00:00 11.7 7 Oeste 21 Oeste 0 945.2 -0.8 93
2020-03-25 04:00:00 11.5 11 Oeste 17 Oeste 0 945.3 -1.2 95
2020-03-25 03:00:00 11.7 13 Oeste 24 Noroeste 0.3 945.8 -1 96
2020-03-25 02:00:00 11.7 18 Oeste 32 Noroeste 0 946 -0.9 96
2020-03-25 01:00:00 11.9 26 Noroeste 35 Oeste 0 946.5 -0.7 94
2020-03-25 00:00:00 11.5 26 Oeste 33 Oeste 0.3 946.8 -0.1 91
2020-03-24 23:00:00 11.8 23 Oeste 35 Oeste 0 946.9 0.7 91
2020-03-24 22:00:00 12.1 27 Oeste 33 Oeste 0 947.2 1.5 92
2020-03-24 21:00:00 12.1 25 Oeste 33 Oeste 0 946.9 1.2 93
2020-03-24 20:00:00 12.1 28 Noroeste 45 Noroeste 0 946.2 0.7 91
2020-03-24 19:00:00 12.6 33 Noroeste 50 Oeste 0 945.7 0.1 88
2020-03-24 18:00:00 13.5 26 Noroeste 37 Noroeste 0 945.7 -0.2 83
2020-03-24 17:00:00 14.5 26 Noroeste 35 Noroeste 0 945.5 -0.9 76
2020-03-24 16:00:00 14.6 28 Noroeste 41 Noroeste 0 945.6 -0.9 79
2020-03-24 15:00:00 14.1 26 Noroeste 37 Noroeste 0 945.9 -1.1 86
2020-03-24 14:00:00 12.6 24 Noroeste 45 Noroeste 0.2 946.4 -0.7 98
2020-03-24 13:00:00 14.3 30 Noroeste 45 Noroeste 0 946.5 -0.3 80
2020-03-24 12:00:00 15.9 30 Noroeste 45 Oeste 0 947 0.8 81
2020-03-24 11:00:00 12.7 31 Noroeste 45 Noroeste 1.4 947.1 1.4 94
2020-03-24 10:00:00 12.9 30 Noroeste 42 Oeste 0.4 946.8 1.5 89
2020-03-24 09:00:00 12.8 28 Noroeste 45 Noroeste 0 946.2 1.1 90
2020-03-24 08:00:00 12.2 33 Oeste 46 Noroeste 0 945.7 0.9 94
2020-03-24 07:00:00 12.2 28 Noroeste 42 Noroeste 0 945.3 0.7 92
2020-03-24 06:00:00 12 26 Noroeste 45 Noroeste 0 945.1 0.3 92
2020-03-24 05:00:00 12 33 Noroeste 54 Oeste 0 944.8 -0.3 94
2020-03-24 04:00:00 12.2 36 Noroeste 58 Oeste 0 944.6 -0.4 95
2020-03-24 03:00:00 12.1 35 Oeste 52 Oeste 0.8 944.8 -0.2 96
2020-03-24 02:00:00 12.3 34 Noroeste 55 Oeste 0.1 945.1 0.1 95
2020-03-24 01:00:00 12 34 Noroeste 52 Oeste 11.2 945 0.1 98
2020-03-24 00:00:00 12.2 39 Noroeste 58 Oeste 0 945 0.7 96
2020-03-23 23:00:00 12.1 36 Noroeste 67 Oeste 0 945 1.6 95
2020-03-23 22:00:00 12 41 Noroeste 55 Noroeste 0 944.9 2.1 94
2020-03-23 21:00:00 12 39 Noroeste 61 Noroeste 0.1 944.3 1.7 95
2020-03-23 20:00:00 12 36 Noroeste 65 Noroeste 0 943.4 1.1 96
2020-03-23 19:00:00 12.3 37 Noroeste 59 Noroeste 0.1 942.8 0.6 91
2020-03-23 18:00:00 12.2 33 Noroeste 52 Noroeste 0.6 942.6 0.9 92
2020-03-23 17:00:00 12.5 31 Noroeste 52 Noroeste 0 942.3 0.3 91
2020-03-23 16:00:00 12.4 31 Noroeste 59 Noroeste 0 942.2 0.3 92
2020-03-23 15:00:00 12.3 37 Noroeste 65 Oeste 0.1 941.7 -0.6 96
2020-03-23 14:00:00 12.6 44 Noroeste 61 Noroeste 0.6 942 -0.3 92
2020-03-23 13:00:00 12.7 41 Noroeste 68 Noroeste 1.5 941.9 -0.1 94
2020-03-23 12:00:00 12.2 40 Noroeste 63 Noroeste 1.2 942.3 2.5 93
2020-03-23 11:00:00 12.2 38 Noroeste 67 Norte 0 942.3 2.9 85
2020-03-23 10:00:00 11.6 39 Noroeste 71 Noroeste 0 942 3.3 81
2020-03-23 09:00:00 11.5 49 Noroeste 84 Noroeste 4.1 939.8 1 89
2020-03-23 08:00:00 11.1 49 Noroeste 80 Noroeste 0.6 939.4 0.9 84
2020-03-23 07:00:00 10.7 50 Noroeste 78 Noroeste 4.9 938.7 0.9 89
2020-03-23 06:00:00 10.1 46 Noroeste 78 Noroeste 0.8 938.8 -0.2 95
2020-03-23 05:00:00 10.3 52 Noroeste 84 Noroeste 1.5 938.5 -0.9 87
2020-03-23 04:00:00 10.1 55 Oeste 76 Oeste 0.7 937.8 -2.3 93
2020-03-23 03:00:00 10.1 49 Oeste 72 Noroeste 0.5 939 -1.5 96
2020-03-23 02:00:00 11 50 Oeste 76 Noroeste 0 939.4 -1.1 86
2020-03-23 01:00:00 11.2 50 Noroeste 68 Noroeste 0 940.1 -0.5 90
2020-03-23 00:00:00 11 54 Noroeste 76 Noroeste 0.1 940.5 -0.8 90
2020-03-22 23:00:00 11.6 54 Noroeste 74 Noroeste 0 940.5 -0.6 88
2020-03-22 22:00:00 11.5 58 Noroeste 78 Oeste 0.1 940.6 -0.6 93
2020-03-22 21:00:00 10.9 51 Oeste 78 Oeste 4.8 941.3 -0.2 92
2020-03-22 20:00:00 11.4 46 Oeste 68 Noroeste 0.2 941.1 -0.7 93
2020-03-22 19:00:00 11.7 50 Oeste 67 Oeste 0 941.2 -1.1 94
2020-03-22 18:00:00 11.1 45 Oeste 63 Oeste 3.9 941.5 -1.6 99
2020-03-22 17:00:00 10.9 46 Oeste 65 Noroeste 10.7 941.8 -2.2 99
2020-03-22 16:00:00 12.4 43 Oeste 59 Oeste 2.9 942.3 -2.7 97
2020-03-22 15:00:00 16.7 33 Oeste 48 Noroeste 0 943.1 -2.4 57
2020-03-22 14:00:00 16.2 32 Oeste 48 Noroeste 0 944 -2.2 65
2020-03-22 13:00:00 16.4 28 Oeste 42 Oeste 0 945 -1.4 53
2020-03-22 12:00:00 16 24 Oeste 48 Oeste 0 945.5 -0.8 59
2020-03-22 11:00:00 13.1 37 Oeste 52 Oeste 0 946.2 0 83
2020-03-22 10:00:00 14 37 Oeste 52 Oeste 0 946.4 0.7 70
2020-03-22 09:00:00 12.3 41 Oeste 50 Oeste 0 946.3 0.7 84
2020-03-22 08:00:00 10.3 35 Oeste 52 Oeste 0 946.2 0.4 95
2020-03-22 07:00:00 10.6 38 Noroeste 48 Oeste 0 945.7 -0.5 89
2020-03-22 06:00:00 10.8 39 Noroeste 52 Noroeste 0 945.6 -1.4 91
2020-03-22 05:00:00 11.1 39 Noroeste 55 Noroeste 0 945.8 -1.8 87
2020-03-22 04:00:00 11.2 38 Oeste 50 Oeste 0 946.2 -2 80
2020-03-22 03:00:00 11.2 36 Oeste 52 Noroeste 0 947 -1.5 81
2020-03-22 02:00:00 11.7 42 Noroeste 58 Noroeste 0 947.6 -1.2 73
2020-03-22 01:00:00 11.4 36 Noroeste 54 Noroeste 0 948.2 -0.7 73
2020-03-22 00:00:00 11.6 37 Noroeste 58 Noroeste 0 948.5 -0.2 70
2020-03-21 23:00:00 11.7 41 Noroeste 59 Noroeste 0 948.8 0.6 72
2020-03-21 22:00:00 11.8 42 Noroeste 58 Noroeste 0 948.9 0.9 72
2020-03-21 21:00:00 11.5 37 Noroeste 58 Noroeste 0 948.7 0.8 86
2020-03-21 20:00:00 11.6 43 Noroeste 55 Oeste 0 948.2 0.4 90
2020-03-21 19:00:00 12.1 44 Noroeste 61 Oeste 0 948 -0.1 80
2020-03-21 18:00:00 12.6 40 Noroeste 59 Noroeste 0 947.9 -0.9 75
2020-03-21 17:00:00 13.9 41 Noroeste 61 Oeste 0 947.8 -2.2 69
2020-03-21 16:00:00 14.7 36 Noroeste 58 Oeste 0 948.1 -2.4 63
2020-03-21 15:00:00 13.7 34 Noroeste 46 Noroeste 0 948.8 -2.3 64
2020-03-21 14:00:00 13.7 28 Noroeste 42 Noroeste 0 950 -1.4 72
2020-03-21 13:00:00 14.8 28 Noroeste 45 Noroeste 0 950.5 -0.7 63
2020-03-21 12:00:00 13.8 26 Noroeste 37 Noroeste 0 951.1 0.2 65
2020-03-21 11:00:00 13.3 18 Noroeste 32 Noroeste 0 951.4 1.2 67
2020-03-21 10:00:00 12.1 19 Noroeste 30 Noroeste 0 951.2 1.3 76
2020-03-21 09:00:00 11.1 18 Noroeste 32 Noroeste 0 950.9 1.3 81
2020-03-21 08:00:00 11 21 Norte 33 Noroeste 0 950.2 0.9 73
2020-03-21 07:00:00 10.7 14 Noroeste 28 Norte 0 949.9 0.9 77
2020-03-21 06:00:00 10.8 14 Norte 26 Norte 0 949.6 0.4 78
2020-03-21 05:00:00 11 14 Noroeste 30 Noroeste 0 949.3 -0.5 80
2020-03-21 04:00:00 11 16 Noroeste 32 Norte 0 949 -1.1 80
2020-03-21 03:00:00 11.4 21 Noroeste 35 Norte 0 949.2 -1.3 82
2020-03-21 02:00:00 11.6 23 Noroeste 42 Noroeste 0 949.8 -0.9 86
2020-03-21 01:00:00 11.7 22 Noroeste 35 Noroeste 0 950.1 -0.8 87
2020-03-21 00:00:00 12 23 Norte 37 Norte 0 950.5 0.2 91
2020-03-20 23:00:00 12.2 18 Norte 32 Noroeste 0 950.7 1.1 92
2020-03-20 22:00:00 12 20 Noroeste 32 Noroeste 0 950.9 1.5 97
2020-03-20 21:00:00 12.2 18 Noroeste 32 Oeste 0 950.3 1.3 98
2020-03-20 20:00:00 12.2 19 Noroeste 33 Noroeste 0.3 949.6 0.8 98
2020-03-20 19:00:00 12 20 Noroeste 45 Noroeste 1.3 949.4 0.7 98
2020-03-20 18:00:00 12.4 25 Noroeste 39 Oeste 1.6 949 0.5 98
2020-03-20 17:00:00 12.4 32 Noroeste 45 Noroeste 0.9 948.8 -0.4 97
2020-03-20 16:00:00 13.1 32 Noroeste 50 Noroeste 0.2 948.7 -1 95
2020-03-20 15:00:00 15 38 Noroeste 55 Oeste 0 948.5 -1.6 75
2020-03-20 14:00:00 15.9 32 Noroeste 48 Oeste 0 949.2 -0.6 65
2020-03-20 13:00:00 15.3 30 Noroeste 48 Noroeste 0 949.7 0.1 73
2020-03-20 12:00:00 14.7 27 Noroeste 45 Noroeste 0 950.1 1.2 80
2020-03-20 11:00:00 14.1 36 Noroeste 48 Noroeste 0 949.8 1.7 82
2020-03-20 10:00:00 13.1 35 Noroeste 52 Oeste 0 949.6 2 88
2020-03-20 09:00:00 13 35 Noroeste 59 Oeste 0 948.9 1.8 89
2020-03-20 08:00:00 12.2 33 Noroeste 54 Noroeste 0 948.1 1.2 96
2020-03-20 07:00:00 12.3 32 Noroeste 46 Noroeste 0 947.6 0.5 85
2020-03-20 06:00:00 12.3 28 Noroeste 48 Noroeste 0 947.1 -0.3 89
2020-03-20 05:00:00 12.7 29 Noroeste 50 Oeste 0 946.9 -1.1 94
2020-03-20 04:00:00 12.4 33 Noroeste 50 Noroeste 0 947.1 -1.4 93
2020-03-20 03:00:00 12.6 37 Noroeste 55 Oeste 0 947.4 -1.3 94
2020-03-20 02:00:00 12.7 35 Noroeste 61 Noroeste 0.1 948 -1 94
2020-03-20 01:00:00 12.6 33 Oeste 48 Noroeste 0 948.5 -0.6 96
2020-03-20 00:00:00 12.9 38 Noroeste 54 Noroeste 0 948.7 0.1 96
2020-03-19 23:00:00 12.9 37 Noroeste 58 Noroeste 0 949 0.5 95
2020-03-19 22:00:00 13 37 Noroeste 58 Noroeste 0.9 949.1 1 96
2020-03-19 21:00:00 13.1 37 Noroeste 52 Noroeste 0.4 948.6 1 97
2020-03-19 20:00:00 13.3 37 Noroeste 54 Noroeste 0 948.5 1.2 96
2020-03-19 19:00:00 13.5 31 Noroeste 48 Noroeste 0 948.1 0.8 93
2020-03-19 18:00:00 13.7 31 Noroeste 48 Noroeste 0 947.6 0.2 91
2020-03-19 17:00:00 14.3 30 Noroeste 46 Noroeste 0 947.3 -0.3 87
2020-03-19 16:00:00 14.6 30 Noroeste 46 Noroeste 0.1 947.3 -0.7 88
2020-03-19 15:00:00 15 32 Noroeste 48 Noroeste 0 947.4 -0.6 90
2020-03-19 14:00:00 14.9 25 Noroeste 45 Noroeste 0.4 947.6 -0.5 92
2020-03-19 13:00:00 14.9 30 Noroeste 63 Noroeste 1.1 948 0.2 93
2020-03-19 12:00:00 14.1 40 Noroeste 63 Oeste 0.7 948 0.7 96
2020-03-19 11:00:00 13.8 41 Oeste 67 Oeste 0.1 948.1 1.6 96
2020-03-19 10:00:00 13.4 42 Noroeste 65 Oeste 0.8 947.8 1.6 97
2020-03-19 09:00:00 12.9 39 Noroeste 58 Noroeste 0.3 947.3 1.4 97
2020-03-19 08:00:00 12.6 43 Oeste 74 Oeste 0.5 946.5 0.7 95
2020-03-19 07:00:00 12.5 42 Oeste 65 Oeste 0.1 946.2 0.4 96
2020-03-19 06:00:00 12.4 46 Oeste 76 Noroeste 0 945.9 0.3 95
2020-03-19 05:00:00 12.2 48 Noroeste 71 Oeste 1.6 945.8 0 97
2020-03-19 04:00:00 12 49 Noroeste 72 Noroeste 0.1 945.8 -0.5 95
2020-03-19 03:00:00 12.2 56 Noroeste 76 Oeste 0 945.6 -1.1 91
2020-03-19 02:00:00 12.4 57 Noroeste 78 Oeste 0 945.8 -1.4 84
2020-03-19 01:00:00 12.3 46 Noroeste 68 Noroeste 0 946.3 -1.1 82
2020-03-19 00:00:00 12.3 49 Noroeste 67 Noroeste 0 946.7 -0.5 82
2020-03-18 23:00:00 12.2 45 Noroeste 68 Noroeste 0 947.2 0.4 89
2020-03-18 22:00:00 12.2 47 Oeste 67 Oeste 0 947.4 1.3 83
2020-03-18 21:00:00 12.4 45 Noroeste 63 Noroeste 0 947.2 1 85
2020-03-18 20:00:00 12.4 49 Noroeste 74 Noroeste 0 946.8 0.6 84
2020-03-18 19:00:00 12.4 50 Noroeste 80 Noroeste 0 946.1 -0.5 82
2020-03-18 18:00:00 12.6 47 Noroeste 68 Oeste 0 946.2 -0.5 84
2020-03-18 17:00:00 13.3 46 Noroeste 67 Noroeste 0 946.2 -0.9 80
2020-03-18 16:00:00 12.7 43 Noroeste 63 Noroeste 0 946.6 -1.1 84
2020-03-18 15:00:00 13.8 43 Noroeste 65 Oeste 0 946.7 -1.6 78
2020-03-18 14:00:00 13.4 38 Noroeste 59 Noroeste 0 947.1 -1.4 80
2020-03-18 13:00:00 12.6 39 Noroeste 55 Noroeste 1.1 947.7 -1.5 93
2020-03-18 12:00:00 12.3 40 Oeste 65 Oeste 0.1 948.3 -0.3 88
2020-03-18 11:00:00 13.1 36 Oeste 52 Oeste 0 948.5 0.5 84
2020-03-18 10:00:00 11.1 28 Noroeste 50 Oeste 0.9 949.2 1.4 87
2020-03-18 09:00:00 11.6 28 Noroeste 45 Noroeste 0 948.6 1.1 94
2020-03-18 08:00:00 10.5 32 Noroeste 45 Norte 0.2 948 0.6 93
2020-03-18 07:00:00 10 31 Noroeste 58 Noroeste 0.1 947.8 0.5 92
2020-03-18 06:00:00 10.5 33 Noroeste 54 Norte 0 947.5 -0.1 93
2020-03-18 05:00:00 10.3 35 Oeste 58 Noroeste 0 947.4 -0.9 87
2020-03-18 04:00:00 10.7 39 Noroeste 58 Noroeste 0 947.3 -1.2 87
2020-03-18 03:00:00 11.2 33 Noroeste 55 Noroeste 0 947.6 -1.8 79
2020-03-18 02:00:00 10.7 35 Noroeste 55 Noroeste 0 948.3 -1.4 85
2020-03-18 01:00:00 10.9 36 Noroeste 59 Noroeste 0.1 948.5 -1.4 94
2020-03-18 00:00:00 10.8 31 Noroeste 50 Noroeste 0 949.4 0 92
2020-03-17 23:00:00 10.8 38 Noroeste 52 Noroeste 0.2 949.7 0.8 96
2020-03-17 22:00:00 10.5 35 Noroeste 59 Noroeste 0.4 949.9 1.4 94
2020-03-17 21:00:00 11.2 31 Noroeste 55 Noroeste 0.6 949.4 0.8 95
2020-03-17 20:00:00 11.3 34 Noroeste 52 Noroeste 0.1 948.9 0.5 95
2020-03-17 19:00:00 11.1 36 Noroeste 48 Noroeste 0 948.5 0 92
2020-03-17 18:00:00 12.2 32 Noroeste 46 Noroeste 0 948.6 -0.1 83
2020-03-17 17:00:00 12 27 Noroeste 48 Noroeste 0 948.4 -0.7 90
2020-03-17 16:00:00 12.8 28 Noroeste 46 Noroeste 0 948.5 -1.2 84
2020-03-17 15:00:00 13.4 24 Noroeste 39 Noroeste 0 948.7 -1.7 80
2020-03-17 14:00:00 13.5 24 Noroeste 37 Noroeste 0.2 949.1 -1.5 84
2020-03-17 13:00:00 12.9 19 Noroeste 39 Norte 0 949.7 -0.9 92
2020-03-17 12:00:00 11.9 22 Noroeste 35 Norte 0.1 950.4 0 93
2020-03-17 11:00:00 11.7 18 Noroeste 41 Norte 0.2 950.6 0.8 92
2020-03-17 10:00:00 11.6 21 Noroeste 39 Noroeste 0 950.6 1.2 77
2020-03-17 09:00:00 10.7 18 Noroeste 33 Norte 0.1 950.4 1.2 89
2020-03-17 08:00:00 10.4 20 Noroeste 39 Noroeste 0 949.8 0.9 89
2020-03-17 07:00:00 9.9 24 Noroeste 37 Noroeste 0.4 949.4 0.4 95
2020-03-17 06:00:00 10.4 23 Noroeste 37 Noroeste 0 949.2 0 87
2020-03-17 05:00:00 10.2 18 Noroeste 33 Noroeste 0.2 948.9 -0.8 93
2020-03-17 04:00:00 10.1 20 Noroeste 35 Noroeste 0.2 949 -0.9 95
2020-03-17 03:00:00 10.5 19 Noroeste 37 Noroeste 0 949.2 -0.8 88
2020-03-17 02:00:00 10.6 17 Noroeste 33 Norte 0 949.7 -0.6 87
2020-03-17 01:00:00 10.5 21 Noroeste 35 Noroeste 0.1 949.9 -0.1 94
2020-03-17 00:00:00 11.7 27 Noroeste 45 Noroeste 0 950 0.1 80
2020-03-16 23:00:00 11.6 28 Noroeste 46 Noroeste 0 950.3 0.9 89
2020-03-16 22:00:00 12 35 Noroeste 48 Noroeste 0 950 0.8 82
2020-03-16 21:00:00 12.2 30 Noroeste 55 Noroeste 0 949.9 0.7 90
2020-03-16 20:00:00 12.1 28 Noroeste 46 Noroeste 0.1 949.4 0.4 93
2020-03-16 19:00:00 12.3 27 Noroeste 48 Noroeste 0.8 949.2 0.3 93
2020-03-16 18:00:00 12.3 29 Noroeste 48 Noroeste 0.2 949.2 0.2 94
2020-03-16 17:00:00 12.9 33 Noroeste 58 Noroeste 0.8 949 -0.4 95
2020-03-16 16:00:00 14.2 31 Noroeste 46 Noroeste 0 948.9 -1.3 82
2020-03-16 15:00:00 15.4 31 Noroeste 52 Noroeste 0 949 -1.9 73
2020-03-16 14:00:00 14.8 34 Noroeste 48 Noroeste 0 949.4 -1.7 79
2020-03-16 13:00:00 15.6 35 Noroeste 52 Noroeste 0 950.2 -0.8 73
2020-03-16 12:00:00 15.1 22 Noroeste 39 Noroeste 0 950.9 0.4 68
2020-03-16 11:00:00 15.1 22 Noroeste 46 Noroeste 0 951.1 1.3 65
2020-03-16 10:00:00 13.9 28 Norte 52 Noroeste 0 951 1.9 73
2020-03-16 09:00:00 13.1 28 Noroeste 50 Noroeste 0 950.5 1.8 73
2020-03-16 08:00:00 11.9 30 Noroeste 48 Noroeste 0 949.8 1 80
2020-03-16 07:00:00 11.8 30 Noroeste 48 Noroeste 0.1 949.1 0.3 85
2020-03-16 06:00:00 11.8 27 Noroeste 45 Noroeste 0 948.7 -0.5 86
2020-03-16 05:00:00 12 27 Noroeste 41 Noroeste 0 948.8 -0.7 85
2020-03-16 04:00:00 12.2 21 Noroeste 37 Noroeste 0.4 948.8 -0.7 90
2020-03-16 03:00:00 12.3 25 Noroeste 39 Noroeste 0.6 949.2 -0.8 90
2020-03-16 02:00:00 12.4 17 Noroeste 39 Noroeste 0.8 949.5 -0.4 94
2020-03-16 01:00:00 12.1 21 Noroeste 39 Noroeste 0.1 949.5 0.1 94
2020-03-16 00:00:00 11.6 18 Noroeste 39 Noroeste 0.6 950 0.9 96
2020-03-15 23:00:00 11.7 30 Noroeste 42 Norte 0 949.9 1.6 91
2020-03-15 22:00:00 12.4 29 Noroeste 46 Noroeste 0 949.4 1.4 88
2020-03-15 21:00:00 12.3 28 Noroeste 54 Noroeste 0 949.1 1.4 84
2020-03-15 20:00:00 12.3 32 Noroeste 45 Noroeste 0 948.3 0.4 91
2020-03-15 19:00:00 12.5 28 Noroeste 45 Noroeste 0 948 0.2 96
2020-03-15 18:00:00 12.7 28 Noroeste 46 Norte 0 947.7 -0.1 89
2020-03-15 17:00:00 12.9 28 Noroeste 50 Noroeste 0 947.9 -0.4 88
2020-03-15 16:00:00 12.6 30 Noroeste 50 Norte 2.5 947.8 -1.3 93
2020-03-15 15:00:00 14.3 31 Noroeste 50 Noroeste 0 947.8 -1.3 75
2020-03-15 14:00:00 13.4 30 Oeste 48 Noroeste 0 948.3 -1.2 84
2020-03-15 13:00:00 12.4 30 Noroeste 42 Oeste 0.8 949.1 -0.2 95
2020-03-15 12:00:00 14.3 26 Noroeste 46 Noroeste 0 949.1 0.5 83
2020-03-15 11:00:00 13 27 Noroeste 42 Noroeste 0.1 949.5 1.4 90
2020-03-15 10:00:00 11.3 28 Noroeste 41 Noroeste 1 949.3 1.7 98
2020-03-15 09:00:00 11.9 26 Noroeste 41 Oeste 0.3 948.6 1.4 92
2020-03-15 08:00:00 11.9 24 Oeste 39 Oeste 0 948.1 1.1 93
2020-03-15 07:00:00 11.4 21 Noroeste 37 Noroeste 0 947.6 0.6 93
2020-03-15 06:00:00 10.6 27 Oeste 39 Oeste 0 947.2 -0.3 94
2020-03-15 05:00:00 10.4 31 Noroeste 46 Oeste 1.1 947 -1.1 98
2020-03-15 04:00:00 11.1 28 Noroeste 41 Noroeste 0 947 -1.3 97
2020-03-15 03:00:00 10.9 25 Noroeste 37 Noroeste 0.6 947.5 -0.9 95
2020-03-15 02:00:00 10.6 26 Noroeste 39 Oeste 0.1 948.1 -0.1 96
2020-03-15 01:00:00 12.3 23 Noroeste 35 Noroeste 0 948.3 0 89
2020-03-15 00:00:00 12.4 26 Noroeste 45 Noroeste 0 948.4 0.1 87
2020-03-14 23:00:00 12.3 35 Noroeste 54 Noroeste 0 948.2 0.5 89
2020-03-14 22:00:00 12.5 44 Noroeste 58 Oeste 0 948.3 0.7 88
2020-03-14 21:00:00 12.7 34 Noroeste 52 Noroeste 0 948.3 1 83
2020-03-14 20:00:00 12.9 30 Noroeste 46 Oeste 0 947.7 0.5 81
2020-03-14 19:00:00 13.2 28 Noroeste 42 Oeste 0 947.6 0.5 78
2020-03-14 18:00:00 13.5 30 Noroeste 42 Noroeste 0 947.3 -0.1 76
2020-03-14 17:00:00 15 24 Noroeste 41 Noroeste 0 947.2 -0.9 64
2020-03-14 16:00:00 16.5 28 Noroeste 41 Noroeste 0 947.1 -1.6 59
2020-03-14 15:00:00 16.2 17 Norte 32 Oeste 0 947.4 -1.9 65
2020-03-14 14:00:00 17.2 18 Noroeste 32 Noroeste 0 948.1 -1.1 60
2020-03-14 13:00:00 16.9 17 Norte 39 Noroeste 0 948.7 -0.2 63
2020-03-14 12:00:00 16.4 15 Noroeste 37 Noroeste 0 949.3 0.6 64
2020-03-14 11:00:00 16.2 23 Noroeste 41 Noroeste 0 949.2 0.5 62
2020-03-14 10:00:00 15.3 26 Noroeste 39 Noroeste 0 948.9 0.4 63
2020-03-14 09:00:00 14 21 Noroeste 37 Noroeste 0 948.7 0.4 70
2020-03-14 08:00:00 12.8 20 Noroeste 32 Noroeste 0 948.7 0.5 82
2020-03-14 07:00:00 12.5 20 Noroeste 28 Noroeste 0 948.5 0 87
2020-03-14 06:00:00 12.7 11 Noroeste 24 Noroeste 0 948.3 -0.6 84
2020-03-14 05:00:00 12.6 17 Noroeste 26 Noroeste 0 948.2 -1.3 89
2020-03-14 04:00:00 12.3 14 Noroeste 22 Noroeste 0 948.5 -1.4 82
2020-03-14 03:00:00 12.7 14 Noroeste 21 Noroeste 0 948.9 -1.4 86
2020-03-14 02:00:00 12.2 12 Noroeste 26 Noroeste 0 949.5 -0.9 85
2020-03-14 01:00:00 12.9 18 Noroeste 33 Noroeste 0 949.9 -0.5 83
2020-03-14 00:00:00 13.4 21 Noroeste 33 Noroeste 0 950.3 0.5 81
2020-03-13 23:00:00 13.5 16 Noroeste 26 Noroeste 0 950.4 1.3 84
2020-03-13 22:00:00 13.8 15 Noroeste 24 Norte 0 950.4 1.5 85
2020-03-13 21:00:00 13.8 18 Noroeste 35 Noroeste 0 949.8 1.3 85
2020-03-13 20:00:00 13.9 24 Noroeste 33 Noroeste 0 949.1 0.6 87
2020-03-13 19:00:00 14.1 24 Oeste 30 Oeste 0 948.9 0.2 81
2020-03-13 18:00:00 15.3 22 Noroeste 32 Oeste -- 948.5 -0.3 75
2020-03-13 17:00:00 16 25 Oeste 33 Noroeste 0 948.5 -0.6 72
2020-03-13 16:00:00 17.2 26 Oeste 35 Oeste 0 948.7 -1.1 71
2020-03-13 15:00:00 17.7 23 Oeste 32 Oeste 0 948.8 -1.4 68
2020-03-13 14:00:00 19.2 12 Oeste 26 Oeste 0 949.1 -1.2 65
2020-03-13 13:00:00 18.4 15 Este 24 Sudeste 0 949.8 -0.2 67
2020-03-13 12:00:00 19.2 8 Sudeste 21 Oeste 0 950.2 0.4 64
2020-03-13 11:00:00 17.6 13 Oeste 21 Oeste 0 950.3 1 69
2020-03-13 10:00:00 15.4 15 Oeste 24 Oeste 0 950 1 80
2020-03-13 09:00:00 13.5 20 Oeste 26 Oeste 0 949.8 1.2 93
2020-03-13 08:00:00 11.8 20 Oeste 26 Oeste 0 949.3 0.8 96
2020-03-13 07:00:00 11.5 18 Oeste 26 Oeste 0 949 0.7 98
2020-03-13 06:00:00 11.4 19 Oeste 26 Oeste 0 948.6 -0.1 98
2020-03-13 05:00:00 11.5 18 Oeste 30 Oeste 0 948.5 -0.5 99
2020-03-13 04:00:00 11.7 22 Oeste 30 Oeste 0 948.3 -0.9 100
2020-03-13 03:00:00 11.7 22 Oeste 28 Oeste 0 948.7 -0.8 100
2020-03-13 02:00:00 11.4 19 Oeste 28 Oeste 0 949 -0.6 99
2020-03-13 01:00:00 11.9 22 Oeste 28 Oeste 0 949.2 -0.1 98
2020-03-13 00:00:00 11.6 12 Oeste 28 Oeste 0 949.5 0.6 75
2020-03-12 23:00:00 12.9 13 Oeste 24 Oeste 0 949.6 1.2 74
2020-03-12 22:00:00 13.9 15 Oeste 22 Oeste 0 949.3 1.1 78
2020-03-12 21:00:00 16.2 17 Oeste 21 Oeste 0 948.9 0.8 78
2020-03-12 20:00:00 15.1 10 Oeste 17 Oeste 0 948.4 0.6 90
2020-03-12 19:00:00 17.2 12 Oeste 18 Oeste 0 948.2 0.4 85
2020-03-12 18:00:00 18.9 14 Oeste 18 Oeste 0 948.1 -0.1 78
2020-03-12 17:00:00 22.6 7 Este 18 Este 0 947.8 -0.7 41
2020-03-12 16:00:00 23.8 12 Este 22 Este 0 947.8 -1.2 34
2020-03-12 15:00:00 22.8 12 Sudeste 24 Este 0 948.2 -1.4 38
2020-03-12 14:00:00 24.5 16 Este 28 Este 0 948.5 -1.1 27
2020-03-12 13:00:00 25.2 17 Este 26 Este 0 949 -0.5 15
2020-03-12 12:00:00 25.1 16 Este 24 Este 0 949.6 0.7 15
2020-03-12 11:00:00 23.8 12 Este 22 Sudeste 0 949.6 1.2 14
2020-03-12 10:00:00 23 14 Este 18 Este 0 949.5 1.6 16
2020-03-12 09:00:00 22.5 10 Sudeste 18 Sudeste 0 948.9 1.3 11
2020-03-12 08:00:00 18.8 12 Sur 21 Sur 0 948.4 1.1 15
2020-03-12 07:00:00 17.1 13 Sur 21 Sur 0 947.9 0.5 15
2020-03-12 06:00:00 18.1 12 Sudeste 18 Sudeste 0 947.6 0.1 13
2020-03-12 05:00:00 15.7 4 Sudeste 8 Sur 0 947.3 -1 17
2020-03-12 04:00:00 16.4 0 Calma 13 Este 0 947.4 -1.3 17
2020-03-12 03:00:00 17.7 7 Sur 13 Sur 0 947.5 -1.5 12
2020-03-12 02:00:00 18.1 7 Oeste 9 Oeste 0 948.3 -0.8 12
2020-03-12 01:00:00 17.9 0 Calma 8 Oeste 0 948.7 -0.3 12
2020-03-12 00:00:00 18.1 3 Oeste 9 Sur 0 949 0.4 16
2020-03-11 23:00:00 18 0 Calma 4 Sudoeste 0 949.1 1.1 16
2020-03-11 22:00:00 18 0 Calma 5 Oeste 0 949 1.2 22
2020-03-11 21:00:00 19 3 Oeste 8 Oeste 0 948.6 0.9 22
2020-03-11 20:00:00 19.5 0 Calma 5 Sudoeste 0 948 0.4 32
2020-03-11 19:00:00 22 4 Sudoeste 11 Oeste 0 947.8 0.2 27
2020-03-11 18:00:00 23.6 5 Sudeste 18 Este 0 947.7 -0.3 27
2020-03-11 17:00:00 23.4 13 Este 21 Este 0 947.6 -0.6 32
2020-03-11 16:00:00 23.1 13 Este 21 Este 0 947.6 -1.2 19
2020-03-11 15:00:00 21.6 14 Sudeste 22 Este 0 948 -1.2 24
2020-03-11 14:00:00 23.7 15 Este 22 Este 0 948.2 -1 20
2020-03-11 13:00:00 23.7 15 Este 24 Este 0 948.8 -0.2 17
2020-03-11 12:00:00 21.3 14 Este 22 Este 0 949.2 0.6 23
2020-03-11 11:00:00 21.3 12 Sudeste 17 Sudeste -- 949.2 1.3 19
2020-03-11 10:00:00 20.5 10 Este 15 Sudeste 0 949 1.2 20
2020-03-11 09:00:00 18.1 8 Sudeste 13 Sudeste 0 948.6 0.9 26
2020-03-11 08:00:00 15.6 9 Sudeste 17 Sudeste 0 947.9 0.3 33
2020-03-11 07:00:00 12.1 13 Sudeste 18 Sudeste 0 947.8 -0.1 92
2020-03-11 06:00:00 14.4 13 Sudeste 21 Sur 0 947.7 -0.7 39
2020-03-11 05:00:00 16.5 14 Sudeste 24 Sur 0 947.6 -1.5 20
2020-03-11 04:00:00 16.7 12 Sudeste 17 Sudeste 0 947.9 -1.5 19
2020-03-11 03:00:00 16.2 10 Sur 13 Sur 0 948.4 -1.4 21
2020-03-11 02:00:00 17 9 Sur 15 Sur 0 949.1 -1.1 20
2020-03-11 01:00:00 16.9 11 Sudeste 15 Sur 0 949.4 -0.7 20
2020-03-11 00:00:00 16.2 11 Sur 13 Sudeste 0 949.8 0.1 21
2020-03-10 23:00:00 16.5 11 Sudeste 13 Sudeste 0 950.2 1 21
2020-03-10 22:00:00 15.6 10 Sur 13 Sur 0 950.1 1.1 47
2020-03-10 21:00:00 16.6 4 Sur 13 Sudoeste 0 949.7 0.7 70
2020-03-10 20:00:00 17 10 Oeste 13 Oeste 0 949.2 0.3 73
2020-03-10 19:00:00 17 0 Calma 13 Este 0 949 -0.3 83
2020-03-10 18:00:00 18 10 Sudeste 18 Sudeste 0 949 -0.9 78
2020-03-10 17:00:00 21.7 11 Este 18 Este 0 948.9 -1.5 56
2020-03-10 16:00:00 20.9 10 Este 26 Este 0 949.3 -1.7 55
2020-03-10 15:00:00 19.9 16 Este 22 Este 0 949.9 -1.7 61
2020-03-10 14:00:00 21 17 Sudeste 24 Este 0 950.4 -1.5 45
2020-03-10 13:00:00 22.4 17 Este 24 Este 0 951 -1 24
2020-03-10 12:00:00 23 17 Este 26 Sudeste 0 951.6 0 17
2020-03-10 11:00:00 22.6 13 Este 22 Este 0 951.9 0.8 11
2020-03-10 10:00:00 21.5 12 Sudeste 21 Este 0 952 1.2 9
2020-03-10 09:00:00 20.8 10 Sudeste 17 Sudeste 0 951.6 1 8
2020-03-10 08:00:00 18.4 11 Sudeste 17 Sur 0 951.1 0.7 10
2020-03-10 07:00:00 16.5 12 Sudeste 17 Sudeste 0 950.8 0.2 12
2020-03-10 06:00:00 16.9 9 Sudeste 18 Este 0 950.6 -0.4 17
2020-03-10 05:00:00 16.3 11 Sudeste 22 Sudeste 0 950.4 -1.2 30
2020-03-10 04:00:00 16.4 10 Sudeste 18 Sur 0 950.6 -1.4 29
2020-03-10 03:00:00 15.5 11 Sur 22 Sudeste 0 951 -1.3 36
2020-03-10 02:00:00 14.8 13 Sudeste 26 Sudeste 0 951.6 -1 49
2020-03-10 01:00:00 15.3 16 Sudeste 24 Sur 0 952 -0.6 46
2020-03-10 00:00:00 15.4 15 Sudeste 22 Sur 0 952.3 -0.1 49
2020-03-09 23:00:00 14 11 Sudeste 18 Sur 0 952.6 0.6 66
2020-03-09 22:00:00 13.6 12 Sudeste 18 Sudeste 0 952.6 0.8 97
2020-03-09 21:00:00 14.3 10 Sudeste 17 Sur 0 952.4 0.8 94
2020-03-09 20:00:00 14.7 12 Sudeste 18 Este 0 952 0.4 93
2020-03-09 19:00:00 19 12 Sur 21 Sudeste 0 951.8 -0.1 38
2020-03-09 18:00:00 21.1 13 Sudeste 26 Este 0 951.6 -0.9 27
2020-03-09 17:00:00 22.1 17 Este 26 Este 0 951.6 -1.5 23
2020-03-09 16:00:00 22.2 15 Este 26 Sudeste 0 951.9 -1.9 23
2020-03-09 15:00:00 22.2 16 Este 28 Este 0 952.5 -1.7 30
2020-03-09 14:00:00 22.9 17 Este 28 Este 0 953.1 -1.2 23
2020-03-09 13:00:00 22.1 14 Este 28 Este 0 953.8 -0.2 30
2020-03-09 12:00:00 20.9 14 Este 26 Este 0 954.2 0.7 38
2020-03-09 11:00:00 20.2 18 Este 32 Este 0 954.3 1.5 37
2020-03-09 10:00:00 18.9 20 Este 32 Sudeste 0 954 1.8 38
2020-03-09 09:00:00 17.8 13 Sudeste 24 Sudeste 0 953.5 1.9 42
2020-03-09 08:00:00 15.1 14 Sudeste 24 Sudeste 0 952.8 1.3 55
2020-03-09 07:00:00 13.4 13 Sudeste 24 Sur 0 952.2 0.7 71
2020-03-09 06:00:00 15.6 15 Sudeste 28 Nordeste 0 951.6 -0.3 42
2020-03-09 05:00:00 13.9 12 Sudeste 21 Sudeste 0 951.5 -0.8 67
2020-03-09 04:00:00 14.1 11 Sudeste 21 Sur 0 951.5 -1.1 66
2020-03-09 03:00:00 14.8 12 Sudeste 18 Sudeste 0 951.9 -0.5 55
2020-03-09 02:00:00 15.1 10 Sudeste 17 Sudeste 0 952.3 0 50
2020-03-09 01:00:00 12.6 2 Sudoeste -- -- -- 952.6 0.4 78
2020-03-09 00:00:00 15.2 9 Sudeste 18 Sur 0 952.4 0.8 52
2020-03-08 23:00:00 18.6 11 Sur 17 Sudeste 0 952.3 1.4 22
2020-03-08 22:00:00 18.8 11 Sudeste 18 Sudeste 0 952.2 2 23
2020-03-08 21:00:00 19.3 10 Sudeste 17 Sudeste 0 951.6 1.7 24
2020-03-08 20:00:00 18.9 11 Sudeste 21 Sudeste 0 950.9 1.1 31
2020-03-08 19:00:00 18.6 13 Sudeste 22 Este 0 950.2 0.3 44
2020-03-08 18:00:00 18.4 13 Sudeste 22 Sudeste 0 949.9 -0.2 68
2020-03-08 17:00:00 19.3 15 Sudeste 26 Este 0 949.8 -0.9 66
2020-03-08 16:00:00 19.8 18 Sudeste 30 Este 0 949.9 -1.5 59
2020-03-08 15:00:00 22.4 21 Sudeste 33 Sudeste 0 950.1 -1.6 46
2020-03-08 14:00:00 22.8 23 Este 35 Este 0 950.7 -0.9 31
2020-03-08 13:00:00 22.4 19 Este 37 Sudeste 0 951.4 0.2 34
2020-03-08 12:00:00 21.7 18 Este 30 Sudeste 0 951.7 1.2 42
2020-03-08 11:00:00 21.1 13 Este 24 Este 0 951.6 2.1 41
2020-03-08 10:00:00 16.5 13 Oeste 24 Oeste 0 951.2 2.6 79
2020-03-08 09:00:00 13.9 15 Oeste 24 Oeste 0 950.5 2.2 92
2020-03-08 08:00:00 12.1 15 Oeste 24 Oeste 0 949.5 1.3 96
2020-03-08 07:00:00 11.8 18 Oeste 28 Oeste 0 948.6 0.4 96
2020-03-08 06:00:00 12.2 18 Oeste 32 Oeste 0 948.3 0.1 95
2020-03-08 05:00:00 12.5 25 Oeste 37 Oeste 0 948.2 -0.1 94
2020-03-08 04:00:00 12.3 27 Oeste 35 Oeste 0 948.2 -0.6 94
2020-03-08 03:00:00 11.9 23 Oeste 33 Oeste 0 948.2 -0.9 93
2020-03-08 02:00:00 11.6 27 Oeste 33 Oeste 0 948.3 -1.2 92
2020-03-08 01:00:00 11.9 23 Oeste -- -- -- 948.8 -0.7 92
2020-03-08 00:00:00 11.9 23 Oeste 33 Oeste 0 949.1 -0.3 91
2020-03-07 23:00:00 12.6 28 Oeste 37 Oeste 0 949.5 0.7 90
2020-03-07 22:00:00 12.7 27 Oeste 37 Noroeste 0 949.5 1.4 87
2020-03-07 21:00:00 12.9 28 Noroeste 41 Noroeste 0 949.4 1.7 86
2020-03-07 20:00:00 13.3 29 Noroeste 39 Noroeste 0 948.8 1.3 86
2020-03-07 19:00:00 13.5 26 Noroeste 33 Noroeste 0 948.1 0.6 83
2020-03-07 18:00:00 15.7 23 Noroeste 30 Noroeste 0 947.7 -0.5 71
2020-03-07 17:00:00 18 15 Noroeste 28 Oeste 0 947.5 -1.4 62
2020-03-07 16:00:00 18.6 12 Este 22 Este 0 947.5 -2.3 55
2020-03-07 15:00:00 18.5 13 Norte 24 Norte 0 948.2 -2.4 56
2020-03-07 14:00:00 17.8 11 Noroeste 26 Norte 0 948.9 -2.1 57
2020-03-07 13:00:00 17.8 14 Noroeste 30 Noroeste 0 949.8 -1.3 57
2020-03-07 12:00:00 17.1 16 Noroeste 28 Norte 0 950.6 -0.6 61
2020-03-07 11:00:00 16.3 13 Noroeste 28 Norte 0 951 0.5 65
2020-03-07 10:00:00 14.9 18 Noroeste 30 Noroeste 0 951.1 0.9 71
2020-03-07 09:00:00 13.5 14 Norte 33 Noroeste 0 951.2 1.8 79
2020-03-07 08:00:00 12.6 15 Noroeste 30 Norte 0 950.5 1.2 84
2020-03-07 07:00:00 12.3 15 Noroeste 28 Noroeste 0 950.2 0.6 84
2020-03-07 06:00:00 12 11 Noroeste 24 Norte 0 949.4 -0.9 84
2020-03-07 05:00:00 11.8 8 Noroeste 15 Noroeste 0 949.3 -1.6 86
2020-03-07 04:00:00 11.2 9 Norte 17 Norte 0 949.6 -1.7 86
2020-03-07 03:00:00 11.6 7 Noroeste 21 Nordeste 0 950.3 -1.4 87
2020-03-07 02:00:00 11.2 6 Noroeste 13 Norte 0 950.9 -1.1 86
2020-03-07 01:00:00 10.7 9 Oeste -- -- -- 951.3 -1.1 85
2020-03-07 00:00:00 10.9 4 Sudoeste 9 Sudoeste 0 951.7 -0.4 84
2020-03-06 23:00:00 11.5 0 Calma 28 Norte 0 952 0.2 81
2020-03-06 22:00:00 12.2 14 Norte 32 Nordeste 0 952.4 0.7 79
2020-03-06 21:00:00 12.5 15 Norte 26 Norte 0 952.1 0.2 80
2020-03-06 20:00:00 12.3 15 Norte 32 Norte 0 951.8 -0.3 80
2020-03-06 19:00:00 12.6 14 Norte 32 Norte 0 951.7 -0.3 76
2020-03-06 18:00:00 14.2 17 Norte 32 Norte 0 951.9 -0.6 73
2020-03-06 17:00:00 14.8 18 Norte 37 Norte 0 952.1 -0.9 70
2020-03-06 16:00:00 15.2 22 Nordeste 37 Nordeste 0 952 -2.1 67
2020-03-06 15:00:00 15.5 17 Norte 33 Nordeste 0 952.5 -2.2 65
2020-03-06 14:00:00 16 19 Nordeste 33 Nordeste 0 953 -1.7 67
2020-03-06 13:00:00 15 21 Nordeste 39 Nordeste 0.1 954.1 -0.6 70
2020-03-06 12:00:00 14.3 17 Nordeste 37 Nordeste 0 954.7 0.7 74
2020-03-06 11:00:00 13.5 19 Norte 37 Norte 0 954.7 1.5 76
2020-03-06 10:00:00 13.4 15 Norte 32 Norte 0 954.7 2.2 80
2020-03-06 09:00:00 12.8 19 Norte 32 Norte 0 954 1.7 87
2020-03-06 08:00:00 12.2 13 Norte 24 Norte 0 953.2 0.9 91
2020-03-06 07:00:00 12.2 9 Norte 28 Norte 0 952.5 -0.1 94
2020-03-06 06:00:00 12.5 13 Norte 26 Norte 0.1 952.3 -0.8 96
2020-03-06 05:00:00 13.5 8 Norte 18 Nordeste 0.2 952.3 -1.3 96
2020-03-06 04:00:00 13.6 6 Norte 24 Norte 0.2 952.6 -1.4 97
2020-03-06 03:00:00 13.9 15 Norte 24 Norte 0.8 953.1 -1.5 97
2020-03-06 02:00:00 14.3 10 Oeste 22 Norte 0.8 953.6 -1.3 96
2020-03-06 01:00:00 15 13 Norte -- -- -- 954 -0.9 80
2020-03-06 00:00:00 14.6 11 Norte 30 Norte 0 954.6 0.4 83
2020-03-05 23:00:00 14.5 10 Norte 35 Norte 0 954.9 1.4 84
2020-03-05 22:00:00 14.3 12 Norte 32 Norte 0 954.9 1.9 85
2020-03-05 21:00:00 13.9 18 Noroeste 37 Noroeste 0 954.2 1.7 88
2020-03-05 20:00:00 13.6 15 Noroeste 39 Noroeste 0 953.5 1.4 86
2020-03-05 19:00:00 14.2 26 Oeste 37 Noroeste 0 953 1.2 85
2020-03-05 18:00:00 15.8 24 Noroeste 35 Noroeste 0 952.5 0.4 78
2020-03-05 17:00:00 16.8 24 Oeste 37 Oeste 0 952.1 -0.6 73
2020-03-05 16:00:00 17.6 22 Oeste 35 Noroeste 0 951.8 -1.3 70
2020-03-05 15:00:00 17 23 Noroeste 37 Oeste 0 952.1 -1.4 75
2020-03-05 14:00:00 16.6 28 Noroeste 48 Oeste 0 952.7 -0.8 78
2020-03-05 13:00:00 16.3 31 Oeste 42 Noroeste 0 953.1 -0.2 82
2020-03-05 12:00:00 16.8 27 Noroeste 35 Noroeste 0 953.5 0.5 78
2020-03-05 11:00:00 17.1 27 Oeste 37 Oeste 0 953.5 1.3 75
2020-03-05 10:00:00 15.8 29 Oeste 37 Oeste 0 953.3 1.8 82
2020-03-05 09:00:00 14 27 Oeste 42 Noroeste 0 953 1.6 96
2020-03-05 08:00:00 13.1 30 Oeste 45 Oeste 0 952.2 1.2 98
2020-03-05 07:00:00 13.3 33 Oeste 41 Oeste 0 951.5 0.6 99
2020-03-05 06:00:00 13.2 26 Oeste 39 Oeste 0 951.4 -0.2 98
2020-03-05 05:00:00 12.5 19 Oeste 32 Oeste 0 951 -0.6 98
2020-03-05 04:00:00 13.2 23 Oeste 30 Oeste 0 950.9 -0.7 89
2020-03-05 03:00:00 13.1 20 Oeste 33 Oeste 0 951.6 -0.6 97
2020-03-05 02:00:00 12.6 14 Oeste 30 Oeste 0 951.6 -0.9 85
2020-03-05 01:00:00 16.6 3 Sudeste -- -- -- 951.6 -1 36
2020-03-05 00:00:00 12.9 12 Oeste 30 Oeste 0 952.2 -0.4 96
2020-03-04 23:00:00 13.4 21 Oeste 28 Oeste 0 952.5 0.9 96
2020-03-04 22:00:00 13.8 17 Oeste 32 Oeste 0 952.6 1.4 96
2020-03-04 21:00:00 14.6 23 Oeste 30 Oeste 0 952.6 1.8 97
2020-03-04 20:00:00 18.3 12 Oeste 18 Oeste 0 951.6 0.9 63
2020-03-04 19:00:00 19.8 3 Sudeste 13 Este 0 951.2 0.4 56
2020-03-04 18:00:00 21.1 11 Este 18 Este 0 950.8 -0.3 53
2020-03-04 17:00:00 22.7 12 Sudeste 22 Sudeste 0 950.7 -0.9 37
2020-03-04 16:00:00 23.2 14 Sudeste 26 Sudeste 0 950.8 -1.5 30
2020-03-04 15:00:00 23.7 17 Sudeste 28 Sudeste 0 951.1 -2.1 34
2020-03-04 14:00:00 24.6 14 Sudeste 26 Este 0 951.6 -1.8 29
2020-03-04 13:00:00 24.6 13 Sudeste 22 Este 0 952.3 -0.9 33
2020-03-04 12:00:00 23.8 11 Este 18 Este 0 953.2 0.3 30
2020-03-04 11:00:00 22.7 11 Sudeste 18 Este 0 953.4 1.1 30
2020-03-04 10:00:00 22.6 9 Sudeste 15 Sudeste 0 953.2 1.4 26
2020-03-04 09:00:00 20.9 9 Sudeste 15 Sudeste 0 952.9 1.4 25
2020-03-04 08:00:00 18.3 11 Sudeste 21 Sudeste 0 952.3 1 29
2020-03-04 07:00:00 15.9 11 Sur 21 Sudeste 0 951.8 0.1 32
2020-03-04 06:00:00 16.2 14 Sudeste 22 Sudeste 0 951.5 -1 30
2020-03-04 05:00:00 15.8 14 Sudeste 22 Sudeste 0 951.3 -1.8 40
2020-03-04 04:00:00 15.5 15 Sudeste 26 Sudeste 0 951.7 -1.9 45
2020-03-04 03:00:00 16 15 Sudeste 24 Sudeste 0 952.5 -1.6 42
2020-03-04 02:00:00 15.6 16 Sudeste 24 Sudeste 0 953.1 -1.1 42
2020-03-04 01:00:00 16.1 14 Sudeste -- -- -- 953.6 -0.2 41
2020-03-04 00:00:00 16.1 15 Sudeste 26 Sudeste 0 954.1 0.6 45